Time;durP1;ratioP1;P1;durP2;ratioP2;P2;SDS_P1;SDS_P2;PMS_P1;PMS_P2;Temp;Humidity;BMP_temperature;BMP_pressure;BME280_temperature;BME280_humidity;BME280_pressure;Samples;Min_cycle;Max_cycle;Signal;HPM_P1;HPM_P2
2021/07/26 00:01:47;;;;;;;7.63;5.05;;;;;;;18.80;67.17;99791.13;10352709;28;20318;-77
2021/07/26 00:06:50;;;;;;;6.45;5.07;;;;;;;18.62;67.83;99781.66;10336422;28;20237;-76
2021/07/26 00:11:53;;;;;;;7.00;5.60;;;;;;;18.13;69.50;99784.00;10325215;28;20263;-76
2021/07/26 00:16:57;;;;;;;6.40;5.22;;;;;;;18.18;70.09;99774.44;10329349;28;21409;-76
2021/07/26 00:22:00;;;;;;;7.13;4.90;;;;;;;18.22;69.72;99778.47;10329515;28;20242;-77
2021/07/26 00:27:04;;;;;;;7.40;5.20;;;;;;;18.19;69.73;99781.56;10328329;28;20249;-77
2021/07/26 00:32:08;;;;;;;7.38;5.40;;;;;;;18.19;70.05;99789.72;10315071;28;20242;-77
2021/07/26 00:37:12;;;;;;;8.98;5.38;;;;;;;18.18;69.62;99794.28;10336887;28;21095;-77
2021/07/26 00:42:15;;;;;;;6.63;4.85;;;;;;;18.28;69.64;99791.31;10343007;28;20718;-77
2021/07/26 00:47:19;;;;;;;6.90;5.05;;;;;;;18.22;69.37;99781.19;10347437;28;20234;-77
2021/07/26 00:52:23;;;;;;;6.88;5.22;;;;;;;18.23;69.36;99777.44;10336970;28;20261;-77
2021/07/26 00:57:26;;;;;;;8.07;5.10;;;;;;;18.32;69.10;99784.44;10340985;28;20234;-77
2021/07/26 01:02:30;;;;;;;6.97;5.78;;;;;;;18.18;69.29;99786.13;10337645;28;20239;-76
2021/07/26 01:07:33;;;;;;;9.63;5.30;;;;;;;18.09;69.55;99785.41;10334257;28;20239;-77
2021/07/26 01:12:36;;;;;;;8.15;5.72;;;;;;;18.01;69.84;99781.94;10342596;28;20238;-77
2021/07/26 01:18:14;;;;;;;6.15;5.05;;;;;;;18.02;69.82;99784.47;10334275;28;20245;-76
2021/07/26 01:23:19;;;;;;;8.10;5.15;;;;;;;17.83;69.85;99788.56;10326207;28;20282;-76
2021/07/26 01:28:25;;;;;;;7.22;5.68;;;;;;;17.85;69.93;99785.66;10332818;28;20250;-76
2021/07/26 01:33:29;;;;;;;9.57;5.80;;;;;;;17.91;70.08;99790.34;10317626;28;20885;-77
2021/07/26 01:38:33;;;;;;;9.68;5.38;;;;;;;17.87;69.98;99789.88;10333194;28;20234;-77
2021/07/26 01:43:39;;;;;;;7.47;5.35;;;;;;;17.86;69.69;99788.19;10342654;28;20265;-76
2021/07/26 01:48:48;;;;;;;7.65;5.55;;;;;;;17.82;69.72;99797.72;10330364;28;20252;-77
2021/07/26 01:53:53;;;;;;;10.00;5.47;;;;;;;17.79;69.67;99789.94;10321845;28;20242;-76
2021/07/26 01:58:58;;;;;;;6.82;5.18;;;;;;;17.75;69.73;99791.38;10336870;28;20960;-77
2021/07/26 02:04:01;;;;;;;6.55;4.63;;;;;;;17.63;69.86;99793.66;10313177;28;20746;-77
2021/07/26 02:09:05;;;;;;;7.35;4.80;;;;;;;17.51;70.44;99788.88;10333088;28;20746;-77
2021/07/26 02:14:10;;;;;;;5.97;4.75;;;;;;;17.62;69.95;99794.72;10332518;28;20245;-77
2021/07/26 02:19:13;;;;;;;6.03;4.75;;;;;;;17.65;69.44;99801.66;10328986;28;20334;-77
2021/07/26 02:24:17;;;;;;;6.30;4.85;;;;;;;17.61;69.45;99811.19;10337715;28;20612;-77
2021/07/26 02:29:20;;;;;;;7.60;4.78;;;;;;;17.68;69.24;99814.84;10329014;28;20235;-77
2021/07/26 02:34:23;;;;;;;6.68;4.35;;;;;;;17.73;68.82;99819.75;10334073;28;20232;-76
2021/07/26 02:39:27;;;;;;;6.90;4.68;;;;;;;17.62;69.03;99824.59;10331765;28;20243;-76
2021/07/26 02:44:30;;;;;;;7.40;4.78;;;;;;;17.66;68.87;99825.91;10337096;28;20234;-76
2021/07/26 02:49:33;;;;;;;5.82;4.53;;;;;;;17.61;68.78;99835.66;10331776;28;20730;-76
2021/07/26 02:54:37;;;;;;;6.60;4.43;;;;;;;17.59;69.24;99840.41;10328054;28;20241;-76
2021/07/26 02:59:40;;;;;;;11.45;4.70;;;;;;;17.52;69.06;99848.41;10317838;28;20264;-78
2021/07/26 03:04:43;;;;;;;8.48;4.88;;;;;;;17.47;69.12;99850.88;10328020;28;20254;-77
2021/07/26 03:09:48;;;;;;;5.70;4.38;;;;;;;17.43;69.46;99847.66;10334661;28;20750;-76
2021/07/26 03:14:50;;;;;;;6.97;4.60;;;;;;;17.39;69.39;99840.91;10332110;28;20231;-77
2021/07/26 03:19:54;;;;;;;8.57;4.43;;;;;;;17.47;69.17;99848.16;10331114;28;20230;-77
2021/07/26 03:24:58;;;;;;;5.85;4.50;;;;;;;17.32;69.42;99849.97;10330536;28;20258;-76
2021/07/26 03:30:01;;;;;;;5.43;4.63;;;;;;;17.34;69.76;99851.47;10328688;28;20247;-75
2021/07/26 03:35:05;;;;;;;9.35;4.28;;;;;;;17.51;69.03;99860.31;10334707;28;20719;-76
2021/07/26 03:40:10;;;;;;;7.15;4.53;;;;;;;17.55;68.67;99858.06;10330166;28;20580;-76
2021/07/26 03:45:14;;;;;;;5.35;4.32;;;;;;;17.50;68.88;99849.63;10331980;28;20765;-77
2021/07/26 03:50:18;;;;;;;7.72;4.60;;;;;;;17.38;69.08;99858.22;10325032;28;20316;-77
2021/07/26 03:55:24;;;;;;;5.90;4.60;;;;;;;17.40;69.38;99861.59;10327613;28;20234;-77
2021/07/26 04:00:29;;;;;;;6.05;4.68;;;;;;;17.51;69.15;99854.88;10327679;28;20270;-77
2021/07/26 04:05:35;;;;;;;7.80;4.88;;;;;;;17.58;68.70;99864.00;10324473;28;20997;-77
2021/07/26 04:10:42;;;;;;;7.60;4.85;;;;;;;17.64;68.45;99854.28;10332957;28;20265;-77
2021/07/26 04:15:46;;;;;;;7.22;4.78;;;;;;;17.59;68.68;99854.00;10326956;28;20243;-77
2021/07/26 04:20:49;;;;;;;5.95;4.50;;;;;;;17.61;68.70;99851.94;10331775;28;20245;-77
2021/07/26 04:25:53;;;;;;;7.95;4.40;;;;;;;17.58;68.66;99860.41;10309492;28;20247;-77
2021/07/26 04:30:56;;;;;;;7.75;4.18;;;;;;;17.59;69.02;99862.13;10330736;28;20690;-77
2021/07/26 04:36:01;;;;;;;5.18;4.38;;;;;;;17.68;68.96;99858.31;10326982;28;20231;-77
2021/07/26 04:41:05;;;;;;;7.63;4.93;;;;;;;17.84;68.38;99855.44;10310510;28;20230;-77
2021/07/26 04:46:09;;;;;;;6.80;4.90;;;;;;;17.95;68.08;99861.47;10327757;28;20235;-77
2021/07/26 04:51:12;;;;;;;8.43;4.90;;;;;;;17.98;67.98;99869.28;10326679;28;20239;-77
2021/07/26 04:56:16;;;;;;;5.70;3.95;;;;;;;17.99;68.23;99860.94;10328988;28;20241;-77
2021/07/26 05:01:19;;;;;;;9.70;4.32;;;;;;;18.18;68.20;99872.28;10306902;28;20242;-77
2021/07/26 05:06:22;;;;;;;5.78;4.13;;;;;;;18.33;67.56;99868.53;10321550;28;20620;-76
2021/07/26 05:11:26;;;;;;;6.32;4.30;;;;;;;18.47;67.38;99866.84;10328804;28;20608;-77
2021/07/26 05:16:29;;;;;;;6.70;4.63;;;;;;;18.69;66.87;99872.38;10325086;28;20593;-77
2021/07/26 05:21:32;;;;;;;6.32;4.03;;;;;;;18.80;66.86;99872.75;10326151;28;20234;-76
2021/07/26 05:26:37;;;;;;;6.32;4.38;;;;;;;18.94;65.85;99881.91;10334186;28;20628;-77
2021/07/26 05:31:39;;;;;;;7.80;5.10;;;;;;;19.15;65.47;99880.28;10329280;28;20600;-76
2021/07/26 05:36:42;;;;;;;4.72;3.80;;;;;;;19.35;64.98;99875.88;10337893;28;20241;-77
2021/07/26 05:41:47;;;;;;;7.75;4.13;;;;;;;19.57;64.35;99881.34;10310072;28;20325;-77
2021/07/26 05:46:50;;;;;;;7.53;4.55;;;;;;;19.72;63.80;99887.59;10332814;28;20241;-77
2021/07/26 05:51:53;;;;;;;6.47;4.18;;;;;;;19.78;63.48;99894.13;10329763;28;20235;-77
2021/07/26 05:56:57;;;;;;;8.95;5.32;;;;;;;19.83;63.51;99894.38;10329443;28;20612;-76
2021/07/26 06:02:00;;;;;;;8.88;4.97;;;;;;;20.04;63.15;99897.03;10332358;28;20242;-76
2021/07/26 06:07:03;;;;;;;7.88;4.50;;;;;;;20.18;62.43;99894.41;10327222;28;20254;-77
2021/07/26 06:12:07;;;;;;;9.07;5.05;;;;;;;20.36;62.28;99891.22;10341641;28;20609;-77
2021/07/26 06:17:10;;;;;;;16.48;4.63;;;;;;;20.51;62.17;99892.75;10349612;28;20226;-76
2021/07/26 06:22:16;;;;;;;7.38;4.70;;;;;;;20.68;61.16;99887.84;10350741;28;20233;-74
2021/07/26 06:27:21;;;;;;;7.72;4.80;;;;;;;20.67;60.54;99879.84;10350177;28;20242;-75
2021/07/26 06:32:24;;;;;;;5.38;4.35;;;;;;;20.54;61.27;99878.75;10347805;28;20230;-75
2021/07/26 06:37:27;;;;;;;6.55;4.32;;;;;;;20.93;61.05;99887.31;10352563;28;20245;-74
2021/07/26 06:42:31;;;;;;;5.80;4.53;;;;;;;20.92;60.76;99891.91;10349225;28;20242;-75
2021/07/26 06:47:34;;;;;;;6.15;4.35;;;;;;;20.96;60.01;99885.00;10348597;28;20230;-75
2021/07/26 06:52:37;;;;;;;6.07;4.18;;;;;;;20.98;60.11;99885.66;10348540;28;20238;-75
2021/07/26 06:57:42;;;;;;;7.18;4.38;;;;;;;21.33;59.56;99898.38;10347830;28;20241;-75
2021/07/26 07:02:46;;;;;;;4.20;3.67;;;;;;;21.50;57.53;99896.09;10348359;28;20884;-75
2021/07/26 07:07:49;;;;;;;6.65;3.72;;;;;;;21.51;57.41;99895.06;10348222;28;20241;-75
2021/07/26 07:12:53;;;;;;;4.65;3.70;;;;;;;21.89;55.98;99893.44;10345948;28;20310;-75
2021/07/26 07:17:56;;;;;;;4.55;3.38;;;;;;;21.62;56.47;99888.97;10347017;28;20241;-75
2021/07/26 07:22:59;;;;;;;5.68;3.47;;;;;;;22.07;54.79;99894.66;10348651;28;20242;-75
2021/07/26 07:28:04;;;;;;;4.68;3.78;;;;;;;21.82;56.25;99886.28;10293841;28;20734;-75
2021/07/26 07:33:07;;;;;;;4.22;3.33;;;;;;;22.30;55.49;99892.34;10306920;28;20242;-75
2021/07/26 07:38:10;;;;;;;5.63;4.13;;;;;;;22.27;55.13;99884.56;10307299;28;20231;-75
2021/07/26 07:43:15;;;;;;;5.65;3.95;;;;;;;22.55;54.17;99878.81;10306295;28;20283;-75
2021/07/26 07:48:19;;;;;;;5.53;3.53;;;;;;;22.79;54.60;99890.13;10306236;28;20243;-74
2021/07/26 07:53:23;;;;;;;5.63;4.07;;;;;;;22.65;53.75;99892.03;10306437;28;20235;-75
2021/07/26 07:58:27;;;;;;;5.50;3.53;;;;;;;23.08;52.48;99894.19;10306727;28;20235;-74
2021/07/26 08:03:30;;;;;;;5.03;3.20;;;;;;;23.82;51.28;99887.22;10327592;28;20242;-75
2021/07/26 08:08:33;;;;;;;5.43;3.40;;;;;;;24.27;50.33;99891.66;10347900;28;20230;-75
2021/07/26 08:13:39;;;;;;;3.92;3.20;;;;;;;24.03;50.22;99901.63;10345234;28;20238;-76
2021/07/26 08:18:42;;;;;;;5.95;3.63;;;;;;;24.25;50.39;99897.41;10339444;28;20868;-75
2021/07/26 08:23:45;;;;;;;4.18;3.25;;;;;;;24.88;48.57;99893.56;10347118;28;20245;-75
2021/07/26 08:28:49;;;;;;;4.65;2.75;;;;;;;24.94;46.71;99891.78;10342816;28;21430;-75
2021/07/26 08:33:52;;;;;;;3.22;2.92;;;;;;;24.72;46.92;99895.00;10347588;28;20230;-74
2021/07/26 08:38:55;;;;;;;3.72;2.85;;;;;;;24.27;47.39;99895.28;10344789;28;20230;-74
2021/07/26 08:43:59;;;;;;;4.13;2.70;;;;;;;24.09;47.83;99890.56;10343572;28;20730;-75
2021/07/26 08:49:02;;;;;;;3.47;2.70;;;;;;;24.23;47.69;99885.78;10343811;28;20773;-74
2021/07/26 08:54:05;;;;;;;3.78;2.83;;;;;;;24.20;47.48;99890.91;10344044;28;21463;-74
2021/07/26 08:59:28;;;;;;;3.22;2.67;;;;;;;24.14;46.62;99909.13;10351951;28;20723;-74
2021/07/26 09:04:31;;;;;;;3.22;2.38;;;;;;;24.86;46.59;99895.69;10351266;28;20230;-74
2021/07/26 09:09:44;;;;;;;3.97;2.60;;;;;;;24.81;45.61;99903.78;10352121;28;20317;-74
2021/07/26 09:14:49;;;;;;;4.45;2.72;;;;;;;25.15;45.27;99909.72;10350713;28;20238;-74
2021/07/26 09:19:59;;;;;;;3.33;2.63;;;;;;;25.26;45.40;99897.94;10351212;28;20738;-74
2021/07/26 09:25:13;;;;;;;3.63;2.75;;;;;;;25.47;44.93;99906.72;10350453;28;20249;-74
2021/07/26 09:30:19;;;;;;;2.50;2.30;;;;;;;25.01;45.31;99914.50;10350717;28;20368;-74
2021/07/26 09:35:25;;;;;;;3.63;2.50;;;;;;;25.09;45.27;99919.72;10352530;28;20230;-73
2021/07/26 09:40:33;;;;;;;3.53;2.60;;;;;;;25.10;44.84;99915.91;10342655;28;20237;-74
2021/07/26 09:45:41;;;;;;;4.47;2.92;;;;;;;25.60;44.40;99912.88;10350035;28;20249;-74
2021/07/26 09:50:46;;;;;;;3.90;2.90;;;;;;;25.79;44.65;99894.41;10350842;28;21789;-74
2021/07/26 09:55:50;;;;;;;4.07;3.13;;;;;;;26.17;42.24;99909.66;10350291;28;20234;-74
2021/07/26 10:00:54;;;;;;;4.47;2.92;;;;;;;26.39;42.42;99903.56;10350842;28;20245;-74
2021/07/26 10:06:41;;;;;;;5.00;3.15;;;;;;;26.12;42.72;99908.69;10346130;28;20602;-74
2021/07/26 10:11:47;;;;;;;3.25;2.58;;;;;;;26.45;41.59;99906.19;10348270;28;20246;-74
2021/07/26 10:16:51;;;;;;;4.32;3.20;;;;;;;26.16;40.51;99904.38;10348958;28;20676;-74
2021/07/26 10:21:56;;;;;;;3.90;3.00;;;;;;;25.53;42.47;99897.53;10350443;28;20241;-74
2021/07/26 10:27:00;;;;;;;2.88;2.45;;;;;;;25.31;43.44;99889.81;10348093;28;20238;-74
2021/07/26 10:32:37;;;;;;;3.78;3.00;;;;;;;26.38;41.26;99894.44;10332492;28;20250;-74
2021/07/26 10:37:50;;;;;;;4.25;2.53;;;;;;;26.20;42.22;99881.63;10345411;28;20236;-74
2021/07/26 10:42:54;;;;;;;4.25;2.70;;;;;;;27.05;40.54;99885.72;10349338;28;20231;-74
2021/07/26 10:48:30;;;;;;;4.82;3.10;;;;;;;26.93;40.49;99883.03;10348772;28;20238;-75
2021/07/26 10:53:59;;;;;;;4.13;2.55;;;;;;;28.03;38.35;99878.16;10349885;28;20365;-74
2021/07/26 10:59:04;;;;;;;3.53;3.15;;;;;;;28.46;38.65;99878.47;10347741;28;20246;-75
2021/07/26 11:04:30;;;;;;;4.03;3.35;;;;;;;27.20;41.35;99876.06;10348258;28;20396;-75
2021/07/26 11:09:47;;;;;;;5.45;3.30;;;;;;;26.47;41.04;99870.16;10349924;28;20619;-74
2021/07/26 11:15:15;;;;;;;4.13;3.10;;;;;;;28.95;36.67;99867.53;10347568;28;20383;-75
2021/07/26 11:20:51;;;;;;;3.13;2.75;;;;;;;27.21;39.97;99863.94;10347080;28;20238;-74
2021/07/26 11:25:56;;;;;;;3.83;3.00;;;;;;;25.75;44.16;99871.19;10348747;28;20242;-74
2021/07/26 11:30:59;;;;;;;3.80;3.10;;;;;;;26.28;41.52;99869.47;10346789;28;20235;-74
2021/07/26 11:36:03;;;;;;;4.28;3.30;;;;;;;27.10;39.58;99860.19;10347491;28;20226;-74
2021/07/26 11:41:17;;;;;;;3.20;2.90;;;;;;;28.50;36.39;99844.56;10348738;28;20238;-74
2021/07/26 11:46:20;;;;;;;4.22;2.92;;;;;;;29.59;36.01;99858.50;10345756;28;20254;-74
2021/07/26 11:51:31;;;;;;;4.10;3.22;;;;;;;29.78;34.87;99848.72;10346049;28;20292;-74
2021/07/26 11:56:37;;;;;;;4.15;3.17;;;;;;;29.52;35.62;99867.03;10306065;28;20234;-74
2021/07/26 12:01:44;;;;;;;4.80;3.70;;;;;;;29.05;35.00;99833.63;10346897;28;20736;-74
2021/07/26 12:06:58;;;;;;;2.92;2.65;;;;;;;27.67;36.12;99842.72;10346171;28;20742;-74
2021/07/26 12:12:13;;;;;;;5.63;2.83;;;;;;;27.19;39.70;99839.41;10345251;28;20261;-74
2021/07/26 12:17:25;;;;;;;4.88;3.03;;;;;;;29.59;36.00;99837.22;10347224;28;20237;-74
2021/07/26 12:22:39;;;;;;;3.35;2.85;;;;;;;29.53;35.25;99841.03;10345814;28;20242;-74
2021/07/26 12:28:01;;;;;;;3.20;2.90;;;;;;;30.54;33.82;99833.72;10347225;28;20238;-75
2021/07/26 12:33:05;;;;;;;2.75;2.10;;;;;;;29.95;32.60;99837.53;10342688;28;20710;-75
2021/07/26 12:38:23;;;;;;;2.83;2.50;;;;;;;30.17;32.96;99834.66;10352148;28;20234;-75
2021/07/26 12:43:28;;;;;;;2.60;2.40;;;;;;;28.81;35.25;99836.69;10348233;28;21349;-74
2021/07/26 12:48:31;;;;;;;5.22;2.70;;;;;;;28.30;36.14;99833.22;10351406;28;20407;-75
2021/07/26 12:53:34;;;;;;;2.95;2.72;;;;;;;28.27;35.74;99840.09;10351032;28;20313;-75
2021/07/26 12:58:39;;;;;;;3.28;2.22;;;;;;;29.45;34.23;99819.38;10352303;28;20260;-75
2021/07/26 13:03:41;;;;;;;3.40;2.13;;;;;;;30.44;32.74;99817.91;10334577;28;20264;-76
2021/07/26 13:08:44;;;;;;;2.30;2.10;;;;;;;30.04;33.15;99821.25;10350883;28;20241;-75
2021/07/26 13:13:48;;;;;;;2.30;2.10;;;;;;;28.42;36.16;99830.38;10351067;28;20580;-76
2021/07/26 13:18:51;;;;;;;3.42;2.10;;;;;;;26.16;39.52;99828.13;10351362;28;20303;-75
2021/07/26 13:23:54;;;;;;;3.55;2.30;;;;;;;25.70;40.01;99817.97;10349685;28;20319;-75
2021/07/26 13:28:58;;;;;;;2.60;2.20;;;;;;;26.63;39.00;99819.84;10349965;28;20243;-75
2021/07/26 13:34:01;;;;;;;5.93;2.25;;;;;;;28.68;35.93;99801.97;10352521;28;20321;-74
2021/07/26 13:39:03;;;;;;;3.67;2.35;;;;;;;27.78;37.79;99806.81;10350329;28;20266;-75
2021/07/26 13:44:07;;;;;;;4.32;2.28;;;;;;;28.02;37.94;99801.09;10348949;28;20240;-75
2021/07/26 13:49:12;;;;;;;3.35;2.30;;;;;;;28.41;37.20;99801.06;10330523;28;20384;-74
2021/07/26 13:54:14;;;;;;;3.30;2.10;;;;;;;28.18;36.61;99811.25;10349843;28;20604;-75
2021/07/26 13:59:19;;;;;;;3.50;2.47;;;;;;;26.56;40.25;99821.88;10334539;28;20246;-74
2021/07/26 14:04:21;;;;;;;3.78;2.55;;;;;;;26.30;41.19;99828.75;10327133;28;20822;-75
2021/07/26 14:09:24;;;;;;;4.75;2.55;;;;;;;26.15;41.47;99825.63;10351273;28;20719;-75
2021/07/26 14:14:29;;;;;;;5.13;2.45;;;;;;;25.57;42.69;99822.59;10350679;28;20268;-75
2021/07/26 14:19:32;;;;;;;2.63;2.28;;;;;;;25.74;41.88;99821.94;10347595;28;20317;-76
2021/07/26 14:24:35;;;;;;;2.25;2.03;;;;;;;26.23;39.36;99812.38;10351223;28;20597;-76
2021/07/26 14:29:39;;;;;;;3.70;1.73;;;;;;;25.38;39.80;99827.34;10349983;28;21049;-75
2021/07/26 14:34:41;;;;;;;1.90;1.60;;;;;;;25.98;39.81;99825.53;10349916;28;20238;-75
2021/07/26 14:39:44;;;;;;;2.08;1.88;;;;;;;28.30;34.14;99807.53;10349447;28;20240;-75
2021/07/26 14:44:48;;;;;;;2.67;1.48;;;;;;;29.19;31.63;99812.78;10350252;28;20810;-74
2021/07/26 14:49:56;;;;;;;1.50;1.35;;;;;;;29.78;31.27;99806.38;10349396;28;20242;-75
2021/07/26 14:54:59;;;;;;;1.67;1.55;;;;;;;29.36;31.65;99810.75;10348830;28;20254;-76
2021/07/26 15:00:04;;;;;;;3.72;1.80;;;;;;;29.25;32.73;99808.97;10348559;28;20242;-75
2021/07/26 15:05:08;;;;;;;1.95;1.80;;;;;;;28.85;32.62;99812.13;10347745;28;20234;-75
2021/07/26 15:10:11;;;;;;;3.85;2.13;;;;;;;28.49;33.60;99801.44;10305599;28;20238;-75
2021/07/26 15:15:15;;;;;;;2.55;1.75;;;;;;;28.08;33.79;99802.84;10348545;28;20911;-76
2021/07/26 15:20:18;;;;;;;2.17;1.70;;;;;;;27.82;34.92;99813.47;10349797;28;20754;-76
2021/07/26 15:25:21;;;;;;;3.30;2.13;;;;;;;28.24;34.02;99799.19;10347307;28;20246;-76
2021/07/26 15:30:25;;;;;;;2.25;1.80;;;;;;;27.95;34.31;99792.16;10342635;28;20258;-76
2021/07/26 15:35:28;;;;;;;2.55;2.33;;;;;;;29.30;33.09;99781.38;10347945;28;20372;-76
2021/07/26 15:40:32;;;;;;;2.88;1.75;;;;;;;27.91;36.16;99780.75;10348494;28;20344;-75
2021/07/26 15:45:40;;;;;;;3.00;2.25;;;;;;;29.66;33.77;99769.78;10348326;28;20789;-74
2021/07/26 15:50:44;;;;;;;4.82;1.73;;;;;;;28.60;34.34;99780.34;10347060;28;20869;-76
2021/07/26 15:55:46;;;;;;;3.20;1.90;;;;;;;28.80;34.06;99779.75;10348838;28;20266;-77
2021/07/26 16:00:51;;;;;;;3.20;2.08;;;;;;;29.20;33.94;99772.97;10348246;28;20276;-76
2021/07/26 16:05:54;;;;;;;2.15;1.90;;;;;;;28.63;34.23;99777.09;10345108;28;20238;-76
2021/07/26 16:10:57;;;;;;;3.33;2.08;;;;;;;27.90;35.64;99770.81;10349098;28;20238;-77
2021/07/26 16:16:01;;;;;;;2.95;2.47;;;;;;;28.70;34.61;99765.81;10348291;28;20313;-76
2021/07/26 16:21:04;;;;;;;2.45;2.25;;;;;;;28.74;34.93;99761.44;10356831;28;20582;-77
2021/07/26 16:26:07;;;;;;;2.50;2.13;;;;;;;28.35;34.97;99764.25;10353306;28;20237;-77
2021/07/26 16:31:12;;;;;;;2.15;1.95;;;;;;;28.67;35.20;99758.06;10352294;28;20344;-76
2021/07/26 16:36:14;;;;;;;3.78;2.10;;;;;;;29.58;33.50;99763.59;10353201;28;20236;-76
2021/07/26 16:41:17;;;;;;;2.38;2.20;;;;;;;30.30;31.77;99761.31;10315409;28;20235;-77
2021/07/26 16:46:21;;;;;;;2.47;2.03;;;;;;;28.55;35.01;99766.50;10306848;28;20309;-75
2021/07/26 16:51:24;;;;;;;2.63;1.83;;;;;;;28.76;35.04;99761.19;10304531;28;20235;-76
2021/07/26 16:56:27;;;;;;;2.40;2.20;;;;;;;30.60;32.33;99763.34;10304309;28;20239;-75
2021/07/26 17:01:32;;;;;;;3.25;2.30;;;;;;;28.90;35.52;99768.78;10305822;28;20247;-76
2021/07/26 17:06:35;;;;;;;2.60;2.33;;;;;;;28.51;35.10;99765.28;10296076;28;20316;-76
2021/07/26 17:11:39;;;;;;;3.65;2.20;;;;;;;31.45;31.17;99759.38;10309421;28;20319;-75
2021/07/26 17:16:43;;;;;;;5.85;2.45;;;;;;;30.38;34.76;99762.72;10309174;28;20243;-76
2021/07/26 17:21:46;;;;;;;4.50;2.60;;;;;;;25.88;46.30;99786.78;10312647;28;20227;-76
2021/07/26 17:26:49;;;;;;;3.58;2.60;;;;;;;23.96;51.57;99796.59;10300475;28;20386;-75
2021/07/26 17:31:53;;;;;;;4.80;3.17;;;;;;;21.50;64.77;99820.41;10273614;28;20365;-76
2021/07/26 17:36:57;;;;;;;6.13;2.95;;;;;;;19.30;68.80;99845.66;10282439;28;20239;-77
2021/07/26 17:42:01;;;;;;;4.45;2.90;;;;;;;17.80;75.35;99848.69;10305992;28;21405;-76
2021/07/26 17:47:05;;;;;;;5.28;3.00;;;;;;;17.06;81.78;99836.69;10313212;28;20316;-77
2021/07/26 17:52:08;;;;;;;7.25;4.07;;;;;;;16.56;86.37;99836.13;10310803;28;20625;-77
2021/07/26 17:57:11;;;;;;;5.68;3.63;;;;;;;16.20;87.54;99836.59;10310263;28;20321;-76
2021/07/26 18:02:16;;;;;;;8.82;4.43;;;;;;;16.41;87.38;99863.16;10314573;28;20293;-78
2021/07/26 18:07:20;;;;;;;6.57;5.05;;;;;;;16.47;87.76;99861.59;10325465;28;20346;-79
2021/07/26 18:12:23;;;;;;;6.10;4.45;;;;;;;16.55;87.77;99843.44;10324771;28;20273;-78
2021/07/26 18:17:27;;;;;;;6.32;4.00;;;;;;;16.96;88.32;99823.38;10328710;28;20237;-78
2021/07/26 18:22:30;;;;;;;6.65;4.47;;;;;;;17.23;88.35;99811.19;10321561;28;20727;-77
2021/07/26 18:27:34;;;;;;;9.07;5.90;;;;;;;17.69;89.34;99814.69;10312298;28;20324;-77
2021/07/26 18:32:39;;;;;;;7.47;4.82;;;;;;;17.30;87.49;99820.25;10313310;28;20243;-77
2021/07/26 18:37:43;;;;;;;8.95;6.15;;;;;;;17.36;88.50;99814.13;10312792;28;20286;-75
2021/07/26 18:42:45;;;;;;;8.23;5.38;;;;;;;17.54;87.75;99830.09;10311511;28;20238;-75
2021/07/26 18:47:49;;;;;;;7.35;5.80;;;;;;;17.51;86.98;99841.31;10313997;28;20305;-74
2021/07/26 18:52:52;;;;;;;8.05;6.80;;;;;;;17.81;87.97;99842.22;10316058;28;20330;-74
2021/07/26 18:57:55;;;;;;;9.30;6.18;;;;;;;18.09;87.89;99850.63;10316855;28;20650;-75
2021/07/26 19:03:00;;;;;;;8.38;6.03;;;;;;;18.35;88.35;99865.66;10299716;28;20235;-74
2021/07/26 19:08:03;;;;;;;11.07;6.13;;;;;;;18.49;87.87;99877.56;10268684;28;20916;-74
2021/07/26 19:13:07;;;;;;;11.68;5.95;;;;;;;18.47;87.44;99879.59;10268110;28;21536;-74
2021/07/26 19:18:11;;;;;;;9.65;6.03;;;;;;;18.33;87.05;99886.75;10293194;28;21334;-74
2021/07/26 19:23:16;;;;;;;10.65;6.30;;;;;;;18.26;86.80;99889.34;10309670;28;20266;-75
2021/07/26 19:28:19;;;;;;;6.80;5.50;;;;;;;18.16;86.83;99899.66;10293102;28;20322;-75
2021/07/26 19:33:23;;;;;;;9.35;5.90;;;;;;;18.14;87.11;99907.16;10268271;28;20243;-76
2021/07/26 19:38:26;;;;;;;8.65;5.28;;;;;;;18.04;86.68;99895.69;10269136;28;20263;-75
2021/07/26 19:43:29;;;;;;;9.05;5.70;;;;;;;18.13;86.96;99909.03;10266803;28;20242;-75
2021/07/26 19:48:33;;;;;;;9.85;6.00;;;;;;;18.18;87.00;99905.72;10266589;28;20236;-75
2021/07/26 19:53:37;;;;;;;8.38;5.75;;;;;;;18.15;86.70;99911.53;10266501;28;21172;-75
2021/07/26 19:58:40;;;;;;;7.07;4.95;;;;;;;18.12;86.45;99911.91;10266395;28;20784;-76
2021/07/26 20:03:44;;;;;;;9.23;6.03;;;;;;;18.00;84.31;99910.69;10265875;28;20243;-75
2021/07/26 20:08:47;;;;;;;13.30;5.82;;;;;;;17.67;85.69;99911.78;10248864;28;20247;-75
2021/07/26 20:13:50;;;;;;;8.02;5.50;;;;;;;17.89;86.86;99914.66;10271430;28;20330;-75
2021/07/26 20:18:54;;;;;;;6.57;5.60;;;;;;;17.80;84.45;99916.63;10296807;28;20249;-74
2021/07/26 20:23:57;;;;;;;6.43;4.95;;;;;;;17.58;85.48;99920.16;10313530;28;20227;-75
2021/07/26 20:29:00;;;;;;;8.18;5.68;;;;;;;17.58;86.25;99929.19;10308735;28;20246;-75
2021/07/26 20:34:04;;;;;;;8.10;5.30;;;;;;;17.67;86.66;99930.78;10308674;28;20282;-75
2021/07/26 20:39:07;;;;;;;7.75;5.40;;;;;;;17.64;86.88;99933.03;10305510;28;20665;-75
2021/07/26 20:44:10;;;;;;;9.43;5.50;;;;;;;17.77;86.96;99933.28;10286776;28;20656;-75
2021/07/26 20:49:14;;;;;;;10.18;5.20;;;;;;;17.91;86.90;99937.06;10306680;28;20238;-74
2021/07/26 20:54:17;;;;;;;7.95;5.00;;;;;;;17.89;86.99;99939.13;10293053;28;20288;-75
2021/07/26 20:59:20;;;;;;;6.57;4.93;;;;;;;17.69;86.80;99942.34;10313245;28;20238;-75
2021/07/26 21:04:24;;;;;;;8.70;5.65;;;;;;;17.39;86.54;99941.34;10311405;28;20905;-75
2021/07/26 21:09:27;;;;;;;10.02;5.72;;;;;;;17.29;86.69;99943.44;10312220;28;20321;-76
2021/07/26 21:14:31;;;;;;;6.18;5.38;;;;;;;17.17;86.67;99945.72;10312395;28;20247;-75
2021/07/26 21:19:35;;;;;;;6.57;5.25;;;;;;;17.36;86.39;99944.44;10311713;28;20250;-76
2021/07/26 21:24:38;;;;;;;7.82;5.75;;;;;;;17.41;86.70;99941.16;10310755;28;20797;-76
2021/07/26 21:29:41;;;;;;;8.38;5.32;;;;;;;17.31;86.53;99940.56;10308666;28;20293;-75
2021/07/26 21:34:46;;;;;;;6.38;5.05;;;;;;;17.33;87.13;99939.34;10305118;28;20373;-75
2021/07/26 21:39:48;;;;;;;7.22;5.30;;;;;;;17.66;87.28;99952.69;10309771;28;20289;-76
2021/07/26 21:44:51;;;;;;;9.98;5.00;;;;;;;17.67;85.70;99951.69;10309701;28;20731;-76
2021/07/26 21:49:56;;;;;;;6.28;4.65;;;;;;;17.60;85.44;99961.56;10310740;28;20273;-76
2021/07/26 21:55:00;;;;;;;6.22;4.43;;;;;;;17.60;85.58;99973.28;10310652;28;20239;-76
2021/07/26 22:00:05;;;;;;;6.15;4.28;;;;;;;17.60;85.29;99961.56;10312027;28;20243;-76
2021/07/26 22:05:16;;;;;;;5.30;4.60;;;;;;;17.66;84.72;99972.56;10311152;28;20258;-76
2021/07/26 22:10:19;;;;;;;7.25;4.32;;;;;;;17.65;83.17;99975.47;10315253;28;20334;-77
2021/07/26 22:15:22;;;;;;;6.93;4.38;;;;;;;17.64;80.16;99982.75;10313507;28;20234;-76
2021/07/26 22:20:26;;;;;;;7.78;4.53;;;;;;;17.46;77.14;99987.63;10309223;28;20235;-77
2021/07/26 22:25:29;;;;;;;6.15;4.22;;;;;;;17.51;76.37;99987.94;10310373;28;20337;-76
2021/07/26 22:30:32;;;;;;;5.78;4.13;;;;;;;17.43;75.65;99983.41;10308681;28;20318;-76
2021/07/26 22:35:39;;;;;;;8.48;5.10;;;;;;;17.46;75.53;99988.47;10309704;28;20337;-76
2021/07/26 22:40:42;;;;;;;6.00;4.70;;;;;;;17.51;75.43;99989.81;10310234;28;20682;-76
2021/07/26 22:45:45;;;;;;;8.13;5.43;;;;;;;17.58;75.86;100005.22;10309217;28;20273;-76
2021/07/26 22:50:50;;;;;;;6.00;5.05;;;;;;;17.64;76.38;100004.50;10309006;28;20269;-77
2021/07/26 22:55:52;;;;;;;7.85;5.53;;;;;;;17.63;76.39;100008.22;10308505;28;20448;-77
2021/07/26 23:00:55;;;;;;;6.15;5.03;;;;;;;17.56;75.95;100004.53;10310123;28;20289;-76
2021/07/26 23:06:00;;;;;;;10.68;5.88;;;;;;;17.58;76.49;100002.50;10308582;28;20277;-76
2021/07/26 23:11:03;;;;;;;8.80;5.93;;;;;;;17.47;76.51;100005.63;10309655;28;20289;-76
2021/07/26 23:16:09;;;;;;;11.02;6.15;;;;;;;17.61;77.30;100004.00;10311191;28;20262;-76
2021/07/26 23:21:14;;;;;;;7.63;5.80;;;;;;;17.65;77.37;100002.63;10310700;28;21485;-76
2021/07/26 23:26:16;;;;;;;10.50;6.80;;;;;;;17.63;77.83;100001.94;10310723;28;20227;-76
2021/07/26 23:31:19;;;;;;;9.57;6.15;;;;;;;17.68;78.78;99997.66;10310858;28;20729;-76
2021/07/26 23:36:24;;;;;;;11.93;6.53;;;;;;;17.70;78.81;99998.34;10308440;28;20269;-76